Time;durP1;ratioP1;P1;durP2;ratioP2;P2;SDS_P1;SDS_P2;PMS_P1;PMS_P2;Temp;Humidity;BMP_temperature;BMP_pressure;BME280_temperature;BME280_humidity;BME280_pressure;Samples;Min_cycle;Max_cycle;Signal;HPM_P1;HPM_P2
2023/06/14 00:00:10;;;;;;;3.92;0.68;;;;;;;26.65;37.44;101033.50;5013308;28;20100;-72
2023/06/14 00:02:38;;;;;;;1.63;0.40;;;;;;;26.59;37.71;101033.72;5019169;28;20523;-73
2023/06/14 00:05:08;;;;;;;1.50;0.60;;;;;;;26.52;36.96;101040.97;5016343;28;20515;-71
2023/06/14 00:07:38;;;;;;;0.93;0.60;;;;;;;26.45;37.25;101038.56;5020987;28;20133;-73
2023/06/14 00:10:09;;;;;;;1.42;0.65;;;;;;;26.38;37.44;101040.53;5017722;28;20050;-74
2023/06/14 00:12:38;;;;;;;1.33;0.50;;;;;;;26.28;37.70;101036.47;5022444;28;20331;-74
2023/06/14 00:15:10;;;;;;;1.08;0.50;;;;;;;26.21;38.11;101040.22;5012993;28;20038;-75
2023/06/14 00:17:38;;;;;;;;;;;;;;;26.17;37.25;101043.88;5024104;28;20046;-71
2023/06/14 00:20:09;;;;;;;1.98;0.60;;;;;;;26.15;37.35;101035.09;5015559;28;20051;-75
2023/06/14 00:22:38;;;;;;;0.60;0.50;;;;;;;26.11;37.50;101045.81;5020976;28;20050;-72
2023/06/14 00:25:09;;;;;;;1.63;0.50;;;;;;;26.04;39.00;101038.94;5013358;28;20042;-73
2023/06/14 00:27:38;;;;;;;2.87;0.57;;;;;;;25.98;38.85;101033.84;5011974;28;20696;-73
2023/06/14 00:30:07;;;;;;;0.50;0.40;;;;;;;25.90;38.33;101035.84;5009188;28;20569;-74
2023/06/14 00:32:36;;;;;;;2.05;0.40;;;;;;;25.85;39.32;101035.06;5006138;28;20050;-73
2023/06/14 00:35:05;;;;;;;1.60;0.55;;;;;;;25.68;37.42;101033.78;5024109;28;20491;-73
2023/06/14 00:37:34;;;;;;;2.70;0.65;;;;;;;25.56;37.72;101031.47;5010492;28;20053;-72
2023/06/14 00:40:03;;;;;;;0.52;0.30;;;;;;;25.50;37.60;101036.97;5013289;28;20107;-71
2023/06/14 00:42:34;;;;;;;0.55;0.40;;;;;;;25.45;38.33;101038.88;5016576;28;20468;-73
2023/06/14 00:45:03;;;;;;;1.85;0.40;;;;;;;25.42;38.65;101034.50;5017919;28;20100;-74
2023/06/14 00:47:31;;;;;;;0.77;0.50;;;;;;;25.48;38.41;101033.50;5022037;28;20132;-72
2023/06/14 00:50:02;;;;;;;1.48;0.50;;;;;;;25.66;37.75;101035.63;5013172;28;20058;-73
2023/06/14 00:52:32;;;;;;;0.82;0.40;;;;;;;25.62;36.61;101031.31;5014730;28;20108;-74
2023/06/14 00:55:01;;;;;;;2.75;0.65;;;;;;;25.60;36.07;101016.38;5013372;28;20058;-71
2023/06/14 00:57:29;;;;;;;2.05;0.52;;;;;;;25.80;37.32;101023.75;5013779;28;20118;-72
2023/06/14 01:00:00;;;;;;;0.70;0.32;;;;;;;25.80;36.06;101029.06;5020808;28;20108;-72
2023/06/14 01:02:28;;;;;;;4.07;0.95;;;;;;;25.80;35.53;101015.78;5013514;28;20061;-72
2023/06/14 01:04:57;;;;;;;1.85;0.55;;;;;;;25.88;35.71;101012.03;5019251;28;20041;-72
2023/06/14 01:07:35;;;;;;;1.40;0.47;;;;;;;25.92;35.87;101013.66;5019200;28;20496;-72
2023/06/14 01:10:20;;;;;;;1.75;0.60;;;;;;;26.01;36.39;101006.34;5011659;28;20050;-74
2023/06/14 01:12:58;;;;;;;3.15;0.57;;;;;;;26.03;35.58;101005.38;5023169;28;20060;-74
2023/06/14 01:15:31;;;;;;;3.13;0.50;;;;;;;26.07;36.23;101009.69;5015176;28;20116;-73
2023/06/14 01:18:03;;;;;;;1.23;0.40;;;;;;;26.11;35.40;100998.06;5015179;28;20042;-73
2023/06/14 01:20:31;;;;;;;;;;;;;;;26.17;35.36;101002.31;5011420;28;20057;-72
2023/06/14 01:23:01;;;;;;;0.50;0.40;;;;;;;26.15;34.90;100988.22;5020982;28;20249;-73
2023/06/14 01:25:30;;;;;;;1.55;0.40;;;;;;;26.26;35.21;100995.84;5019678;28;20129;-74
2023/06/14 01:28:10;;;;;;;0.90;0.30;;;;;;;26.29;34.82;101004.56;5023984;28;20150;-73
2023/06/14 01:30:42;;;;;;;0.90;0.40;;;;;;;26.30;34.33;101010.75;5024508;28;20154;-73
2023/06/14 01:33:11;;;;;;;0.50;0.40;;;;;;;26.28;33.91;101009.94;5017691;28;20048;-74
2023/06/14 01:35:40;;;;;;;0.75;0.38;;;;;;;26.25;33.57;101010.00;5017020;28;20045;-76
2023/06/14 01:38:11;;;;;;;0.75;0.40;;;;;;;26.23;33.93;101006.56;5018094;28;20469;-74
2023/06/14 01:40:41;;;;;;;1.10;0.57;;;;;;;26.12;33.49;100997.16;5025762;28;20061;-74
2023/06/14 01:43:11;;;;;;;1.30;0.43;;;;;;;26.20;34.55;101004.00;5016605;28;20132;-74
2023/06/14 01:45:41;;;;;;;0.75;0.50;;;;;;;26.15;34.20;101014.75;5025106;28;20042;-73
2023/06/14 01:48:10;;;;;;;0.80;0.40;;;;;;;26.12;32.99;101015.72;5020789;28;20037;-73
2023/06/14 01:50:39;;;;;;;3.15;0.82;;;;;;;26.10;34.26;101012.22;5023706;28;20104;-71
2023/06/14 01:53:11;;;;;;;0.82;0.60;;;;;;;26.03;33.73;101010.69;5030847;28;20053;-71
2023/06/14 01:55:43;;;;;;;3.08;0.38;;;;;;;25.90;33.03;101009.31;5016580;28;20687;-72
2023/06/14 01:58:11;;;;;;;0.73;0.52;;;;;;;25.83;33.39;101010.41;5017639;28;20049;-71
2023/06/14 02:00:40;;;;;;;1.13;0.47;;;;;;;25.79;33.84;101001.66;5018565;28;20054;-72
2023/06/14 02:03:08;;;;;;;2.17;0.73;;;;;;;25.68;33.01;101003.78;5016967;28;20054;-71
2023/06/14 02:05:38;;;;;;;1.42;0.40;;;;;;;25.56;32.93;101001.47;5006993;28;20645;-72
2023/06/14 02:08:07;;;;;;;0.52;0.35;;;;;;;25.44;33.85;101005.34;5020599;28;20342;-72
2023/06/14 02:10:37;;;;;;;0.75;0.50;;;;;;;25.26;33.59;101012.88;5013240;28;20582;-71
2023/06/14 02:13:06;;;;;;;0.82;0.50;;;;;;;25.09;33.38;101015.09;5019040;28;20042;-71
2023/06/14 02:15:35;;;;;;;0.85;0.32;;;;;;;24.82;34.31;101016.69;5015322;28;20081;-73
2023/06/14 02:18:07;;;;;;;1.80;0.50;;;;;;;24.62;34.68;101017.16;5022513;28;20399;-72
2023/06/14 02:20:35;;;;;;;2.65;0.40;;;;;;;24.46;36.28;101022.81;5011129;28;20554;-73
2023/06/14 02:23:04;;;;;;;1.88;0.57;;;;;;;24.36;34.79;101031.84;5012033;28;20099;-73
2023/06/14 02:25:33;;;;;;;2.85;0.40;;;;;;;24.24;35.36;101040.09;5013057;28;20053;-73
2023/06/14 02:28:03;;;;;;;2.05;0.55;;;;;;;24.09;34.54;101037.78;5018415;28;20049;-73
2023/06/14 02:30:32;;;;;;;1.27;0.50;;;;;;;23.92;36.32;101041.66;5023217;28;20191;-73
2023/06/14 02:33:01;;;;;;;1.83;0.50;;;;;;;23.84;36.30;101048.88;5016866;28;20045;-72
2023/06/14 02:35:30;;;;;;;1.42;0.50;;;;;;;23.78;36.26;101047.22;5012855;28;20056;-72
2023/06/14 02:37:58;;;;;;;0.90;0.50;;;;;;;23.73;37.24;101053.47;5021210;28;20048;-72
2023/06/14 02:40:27;;;;;;;2.25;0.60;;;;;;;23.60;36.29;101048.44;5021171;28;20068;-73
2023/06/14 02:42:55;;;;;;;1.00;0.50;;;;;;;23.48;36.64;101053.97;5009964;28;20108;-74
2023/06/14 02:45:26;;;;;;;0.80;0.57;;;;;;;23.40;36.04;101047.94;5023411;28;20104;-73
2023/06/14 02:47:55;;;;;;;1.05;0.50;;;;;;;23.34;37.37;101050.69;5009421;28;20049;-73
2023/06/14 02:50:24;;;;;;;0.77;0.40;;;;;;;23.28;36.74;101058.75;5023162;28;20056;-72
2023/06/14 02:52:52;;;;;;;0.65;0.60;;;;;;;23.21;37.30;101061.50;5022731;28;20041;-73
2023/06/14 02:55:21;;;;;;;1.00;0.50;;;;;;;23.07;36.88;101052.09;5014486;28;20054;-73
2023/06/14 02:57:49;;;;;;;1.65;0.50;;;;;;;22.94;37.23;101062.81;5014176;28;20056;-73
2023/06/14 03:00:19;;;;;;;0.80;0.50;;;;;;;22.84;38.27;101062.97;5010469;28;20132;-73
2023/06/14 03:02:51;;;;;;;1.20;0.60;;;;;;;22.75;38.40;101072.81;5011861;28;20049;-72
2023/06/14 03:05:21;;;;;;;1.80;0.80;;;;;;;22.65;37.49;101080.88;5021216;28;20068;-73
2023/06/14 03:07:50;;;;;;;2.40;0.90;;;;;;;22.47;38.23;101082.91;5023727;28;20050;-73
2023/06/14 03:10:18;;;;;;;3.20;0.90;;;;;;;22.37;37.97;101082.16;5008907;28;20045;-74
2023/06/14 03:12:47;;;;;;;2.00;0.70;;;;;;;22.22;37.55;101076.22;5008172;28;20550;-75
2023/06/14 03:15:17;;;;;;;1.75;0.60;;;;;;;22.04;39.12;101070.28;5011017;28;20060;-73
2023/06/14 03:17:49;;;;;;;2.65;0.95;;;;;;;21.88;39.28;101060.81;5013007;28;20133;-72
2023/06/14 03:20:19;;;;;;;1.92;0.82;;;;;;;21.76;39.23;101067.09;5028040;28;20056;-71
2023/06/14 03:22:48;;;;;;;3.10;1.95;;;;;;;21.66;39.10;101076.00;5015321;28;20077;-71
2023/06/14 03:25:18;;;;;;;4.72;2.45;;;;;;;21.57;40.09;101074.34;5012672;28;20045;-71
2023/06/14 03:27:50;;;;;;;1.63;0.85;;;;;;;21.47;40.45;101081.47;5009904;28;20057;-72
2023/06/14 03:30:18;;;;;;;1.40;0.80;;;;;;;21.34;40.06;101080.66;5008139;28;20049;-71
2023/06/14 03:32:47;;;;;;;2.70;1.85;;;;;;;21.27;39.72;101089.53;5015508;28;20057;-71
2023/06/14 03:35:17;;;;;;;5.97;1.90;;;;;;;21.16;40.19;101093.13;5013256;28;20085;-69
2023/06/14 03:37:47;;;;;;;3.40;2.25;;;;;;;21.05;39.79;101094.13;5019507;28;20064;-70
2023/06/14 03:40:19;;;;;;;2.35;1.00;;;;;;;20.90;40.56;101094.22;5019096;28;20053;-69
2023/06/14 03:42:48;;;;;;;2.50;0.80;;;;;;;20.79;40.43;101101.31;5020811;28;20089;-71
2023/06/14 03:45:16;;;;;;;3.97;0.90;;;;;;;20.66;40.63;101095.25;5025074;28;20503;-72
2023/06/14 03:47:46;;;;;;;2.33;0.80;;;;;;;20.54;40.82;101097.94;5022908;28;20141;-69
2023/06/14 03:50:28;;;;;;;2.72;0.85;;;;;;;20.41;41.56;101099.75;5015878;28;20410;-72
2023/06/14 03:52:58;;;;;;;4.82;0.98;;;;;;;20.31;41.59;101112.09;5023760;28;20477;-71
2023/06/14 03:55:27;;;;;;;3.20;1.13;;;;;;;20.18;41.91;101123.53;5018132;28;20045;-73
2023/06/14 03:57:56;;;;;;;1.77;0.60;;;;;;;20.05;41.86;101127.97;5020624;28;20049;-71
2023/06/14 04:00:27;;;;;;;1.45;0.50;;;;;;;19.93;42.09;101125.38;5015058;28;20056;-70
2023/06/14 04:02:55;;;;;;;1.27;0.70;;;;;;;19.85;41.74;101131.53;5022165;28;20092;-70
2023/06/14 04:05:26;;;;;;;4.18;1.05;;;;;;;19.74;42.13;101127.19;5012292;28;20695;-71
2023/06/14 04:07:56;;;;;;;2.00;0.70;;;;;;;19.63;42.79;101129.78;5024598;28;20055;-69
2023/06/14 04:10:27;;;;;;;2.03;0.47;;;;;;;19.53;42.76;101134.19;5014821;28;20164;-69
2023/06/14 04:12:56;;;;;;;1.58;0.63;;;;;;;19.42;42.84;101136.84;5019809;28;20050;-70
2023/06/14 04:15:24;;;;;;;1.60;0.50;;;;;;;19.32;44.18;101145.59;5016089;28;20107;-68
2023/06/14 04:17:57;;;;;;;1.00;0.65;;;;;;;19.22;44.12;101149.09;5018730;28;20053;-69
2023/06/14 04:20:25;;;;;;;;;;;;;;;19.12;45.09;101163.06;5011137;28;20057;-69
2023/06/14 04:22:57;;;;;;;1.83;0.40;;;;;;;19.00;43.84;101175.28;5015469;28;19928;-70
2023/06/14 04:25:30;;;;;;;2.17;0.73;;;;;;;18.89;44.11;101179.63;5019755;28;20136;-68
2023/06/14 04:27:59;;;;;;;2.30;0.55;;;;;;;18.79;44.10;101178.75;5019826;28;20137;-68
2023/06/14 04:30:31;;;;;;;2.80;0.68;;;;;;;18.71;44.12;101179.56;5022510;28;20118;-71
2023/06/14 04:32:59;;;;;;;5.85;1.23;;;;;;;18.63;44.48;101187.41;5021930;28;20322;-70
2023/06/14 04:35:28;;;;;;;2.33;0.55;;;;;;;18.52;45.09;101192.59;5022702;28;20492;-69
2023/06/14 04:37:57;;;;;;;1.73;0.65;;;;;;;18.40;45.25;101197.81;5015785;28;20049;-69
2023/06/14 04:40:29;;;;;;;2.47;0.88;;;;;;;18.30;45.50;101211.72;5017779;28;20060;-70
2023/06/14 04:42:58;;;;;;;0.82;0.45;;;;;;;18.20;45.94;101216.91;5007566;28;20045;-70
2023/06/14 04:45:31;;;;;;;3.40;0.63;;;;;;;18.11;46.14;101221.22;5017572;28;20576;-70
2023/06/14 04:48:01;;;;;;;1.25;0.57;;;;;;;18.09;45.83;101230.81;5026583;28;20042;-71
2023/06/14 04:50:32;;;;;;;3.30;0.40;;;;;;;17.99;46.11;101230.75;5018959;28;20492;-71
2023/06/14 04:53:01;;;;;;;1.43;0.53;;;;;;;17.91;46.33;101239.41;5019096;28;20049;-70
2023/06/14 04:55:32;;;;;;;1.83;0.60;;;;;;;17.83;47.39;101246.34;5020383;28;20111;-70
2023/06/14 04:58:01;;;;;;;3.05;0.85;;;;;;;17.74;46.99;101253.22;5023411;28;20049;-71
2023/06/14 05:00:30;;;;;;;2.70;0.55;;;;;;;17.70;46.79;101254.06;5013811;28;20060;-70
2023/06/14 05:02:58;;;;;;;3.92;0.75;;;;;;;17.65;46.71;101258.38;5017173;28;20073;-70
2023/06/14 05:05:27;;;;;;;2.40;0.75;;;;;;;17.59;46.88;101256.59;5017331;28;20577;-70
2023/06/14 05:07:56;;;;;;;5.30;0.80;;;;;;;17.53;47.12;101264.41;5018716;28;20057;-71
2023/06/14 05:10:24;;;;;;;3.95;0.70;;;;;;;17.45;48.00;101263.44;5027038;28;20056;-71
2023/06/14 05:12:57;;;;;;;2.53;0.80;;;;;;;17.34;48.72;101268.59;5024804;28;20491;-70
2023/06/14 05:15:26;;;;;;;1.33;0.50;;;;;;;17.26;51.84;101269.38;5022427;28;20050;-70
2023/06/14 05:17:56;;;;;;;4.03;0.93;;;;;;;17.16;50.36;101268.41;5017588;28;20162;-71
2023/06/14 05:20:26;;;;;;;3.63;0.80;;;;;;;17.04;48.16;101282.22;5021128;28;20056;-71
2023/06/14 05:22:56;;;;;;;2.20;0.82;;;;;;;16.95;48.58;101284.72;5022039;28;20052;-71
2023/06/14 05:25:25;;;;;;;3.22;1.00;;;;;;;16.91;49.18;101293.38;5015525;28;20064;-69
2023/06/14 05:27:55;;;;;;;2.20;0.73;;;;;;;16.87;49.81;101295.06;5021716;28;20041;-71
2023/06/14 05:30:24;;;;;;;5.00;0.70;;;;;;;16.82;50.65;101296.75;5026497;28;20490;-70
2023/06/14 05:32:52;;;;;;;6.25;1.20;;;;;;;16.77;49.67;101295.78;5027597;28;20050;-70
2023/06/14 05:35:22;;;;;;;6.85;1.25;;;;;;;16.70;49.29;101302.69;5017223;28;20253;-69
2023/06/14 05:37:50;;;;;;;4.53;1.05;;;;;;;16.60;49.54;101297.31;5014807;28;20051;-70
2023/06/14 05:40:19;;;;;;;3.80;1.15;;;;;;;16.60;49.86;101302.53;5023883;28;20135;-70
2023/06/14 05:42:48;;;;;;;5.88;0.88;;;;;;;16.55;50.05;101311.16;5016231;28;20499;-69
2023/06/14 05:45:18;;;;;;;5.35;0.88;;;;;;;16.49;49.66;101315.44;5029146;28;20049;-70
2023/06/14 05:47:47;;;;;;;2.15;0.73;;;;;;;16.40;50.08;101321.44;5027004;28;20498;-70
2023/06/14 05:50:15;;;;;;;5.43;1.35;;;;;;;16.29;50.22;101323.00;5015404;28;20062;-70
2023/06/14 05:52:44;;;;;;;2.08;1.10;;;;;;;16.22;50.74;101321.16;5010969;28;20068;-69
2023/06/14 05:55:13;;;;;;;4.60;1.10;;;;;;;16.15;50.70;101324.50;5016067;28;20522;-70
2023/06/14 05:57:41;;;;;;;6.75;1.05;;;;;;;16.08;51.08;101319.19;5011073;28;20060;-69
2023/06/14 06:00:14;;;;;;;5.13;1.33;;;;;;;15.99;50.79;101325.97;5012606;28;20090;-69
2023/06/14 06:02:45;;;;;;;8.98;1.00;;;;;;;15.91;50.55;101331.09;5011680;28;20141;-69
2023/06/14 06:05:13;;;;;;;10.85;1.23;;;;;;;15.88;50.72;101341.47;5018372;28;20111;-70
2023/06/14 06:07:44;;;;;;;7.53;1.40;;;;;;;15.83;51.00;101332.69;5024494;28;20046;-69
2023/06/14 06:10:12;;;;;;;4.47;1.52;;;;;;;15.77;50.94;101327.38;5022609;28;20136;-70
2023/06/14 06:12:42;;;;;;;5.10;1.25;;;;;;;15.64;51.20;101332.31;5013761;28;20112;-70
2023/06/14 06:15:12;;;;;;;4.65;1.05;;;;;;;15.60;51.46;101340.97;5017853;28;20553;-69
2023/06/14 06:17:43;;;;;;;4.88;1.10;;;;;;;15.57;52.12;101340.88;5029261;28;20136;-70
2023/06/14 06:20:12;;;;;;;9.32;1.30;;;;;;;15.55;51.77;101345.19;5024940;28;20089;-69
2023/06/14 06:22:41;;;;;;;4.32;1.27;;;;;;;15.47;52.15;101349.41;5012218;28;20046;-70
2023/06/14 06:25:10;;;;;;;3.88;1.15;;;;;;;15.38;53.43;101341.41;5019246;28;20049;-69
2023/06/14 06:27:40;;;;;;;3.13;1.13;;;;;;;15.29;52.59;101349.91;5014562;28;20119;-70
2023/06/14 06:30:09;;;;;;;9.65;1.30;;;;;;;15.26;52.51;101342.91;5017837;28;20089;-70
2023/06/14 06:32:38;;;;;;;3.88;1.35;;;;;;;15.23;52.33;101349.78;4998517;28;20046;-70
2023/06/14 06:35:10;;;;;;;4.97;1.00;;;;;;;15.20;53.04;101353.22;4998754;28;20046;-69
2023/06/14 06:37:38;;;;;;;;;;;;;;;15.16;54.02;101358.34;5006994;28;20060;-69
2023/06/14 06:40:08;;;;;;;5.65;1.38;;;;;;;15.11;54.11;101358.25;5002643;28;19925;-70
2023/06/14 06:42:37;;;;;;;13.48;1.80;;;;;;;15.05;54.25;101360.75;4986919;28;20487;-70
2023/06/14 06:45:06;;;;;;;3.70;1.10;;;;;;;14.98;54.12;101358.84;5000781;28;20057;-70
2023/06/14 06:47:35;;;;;;;5.22;1.10;;;;;;;14.94;53.74;101357.03;5004528;28;20081;-70
2023/06/14 06:50:03;;;;;;;4.85;0.80;;;;;;;14.91;53.88;101365.63;4999444;28;20085;-70
2023/06/14 06:52:33;;;;;;;4.30;1.40;;;;;;;14.86;53.95;101356.84;5004967;28;20520;-70
2023/06/14 06:55:02;;;;;;;4.43;1.83;;;;;;;14.82;53.91;101363.75;5002835;28;20587;-70
2023/06/14 06:57:31;;;;;;;7.65;1.08;;;;;;;14.77;54.53;101370.56;5001753;28;20073;-70
2023/06/14 07:00:00;;;;;;;7.32;1.45;;;;;;;14.66;54.19;101377.28;4999365;28;20038;-69
2023/06/14 07:02:30;;;;;;;3.55;1.48;;;;;;;14.57;54.38;101375.34;5004580;28;20046;-69
2023/06/14 07:04:59;;;;;;;7.68;1.83;;;;;;;14.55;54.17;101382.22;5003934;28;20133;-71
2023/06/14 07:07:27;;;;;;;6.35;1.50;;;;;;;14.53;54.54;101385.63;5003723;28;20049;-70
2023/06/14 07:09:59;;;;;;;4.40;0.75;;;;;;;14.50;54.57;101380.31;5002125;28;20075;-70
2023/06/14 07:12:28;;;;;;;4.57;1.07;;;;;;;14.45;55.25;101382.81;4997612;28;20060;-70
2023/06/14 07:14:56;;;;;;;6.30;1.23;;;;;;;14.41;55.02;101392.28;5002350;28;20046;-69
2023/06/14 07:17:25;;;;;;;6.25;1.33;;;;;;;14.34;55.84;101385.19;5002157;28;20492;-70
2023/06/14 07:19:53;;;;;;;4.45;0.93;;;;;;;14.31;57.04;101385.09;5001241;28;20050;-69
2023/06/14 07:22:22;;;;;;;3.50;1.35;;;;;;;14.27;57.06;101388.47;4996548;28;20089;-69
2023/06/14 07:24:51;;;;;;;5.43;1.15;;;;;;;14.27;57.45;101388.47;4999830;28;20042;-69
2023/06/14 07:27:21;;;;;;;2.60;1.05;;;;;;;14.26;57.51;101386.69;4997720;28;20046;-69
2023/06/14 07:29:50;;;;;;;3.92;1.20;;;;;;;14.19;56.58;101387.41;5001332;28;21162;-69
2023/06/14 07:32:21;;;;;;;4.70;1.20;;;;;;;14.10;56.57;101389.78;5016658;28;21134;-70
2023/06/14 07:34:50;;;;;;;4.65;1.55;;;;;;;14.08;57.03;101391.44;5020242;28;20099;-70
2023/06/14 07:37:18;;;;;;;9.00;1.33;;;;;;;14.04;57.17;101391.38;5022915;28;20512;-70
2023/06/14 07:39:47;;;;;;;4.50;1.05;;;;;;;13.95;57.01;101391.16;5021151;28;20045;-70
2023/06/14 07:42:16;;;;;;;8.07;1.65;;;;;;;13.94;57.98;101393.69;5015451;28;20054;-69
2023/06/14 07:44:46;;;;;;;4.35;1.38;;;;;;;13.92;57.61;101392.78;5017236;28;20133;-69
2023/06/14 07:47:15;;;;;;;8.57;1.83;;;;;;;13.85;58.55;101396.94;5012989;28;20041;-69
2023/06/14 07:49:43;;;;;;;9.90;2.50;;;;;;;13.82;58.12;101404.66;5015826;28;20057;-69
2023/06/14 07:52:13;;;;;;;3.85;1.10;;;;;;;13.79;57.62;101399.41;5019809;28;20046;-70
2023/06/14 07:54:42;;;;;;;7.90;1.40;;;;;;;13.75;56.94;101405.34;5017311;28;20137;-69
2023/06/14 07:57:11;;;;;;;5.22;1.55;;;;;;;13.73;56.71;101415.69;5021189;28;20053;-69
2023/06/14 07:59:39;;;;;;;3.83;1.20;;;;;;;13.71;57.12;101408.69;5018187;28;20053;-70
2023/06/14 08:02:10;;;;;;;10.18;1.83;;;;;;;13.67;57.57;101404.25;5018225;28;20080;-69
2023/06/14 08:04:38;;;;;;;12.00;1.75;;;;;;;13.61;58.02;101400.66;5017115;28;20108;-70
2023/06/14 08:07:07;;;;;;;4.88;0.98;;;;;;;13.52;58.16;101396.91;5023567;28;20069;-70
2023/06/14 08:09:37;;;;;;;6.28;1.70;;;;;;;13.48;58.28;101401.13;5014104;28;20278;-69
2023/06/14 08:12:07;;;;;;;5.45;1.58;;;;;;;13.43;58.66;101400.13;5022463;28;20054;-69
2023/06/14 08:14:35;;;;;;;3.17;1.17;;;;;;;13.38;59.00;101401.75;5020666;28;20690;-69
2023/06/14 08:17:04;;;;;;;6.68;1.27;;;;;;;13.34;59.94;101395.56;5018372;28;20057;-68
2023/06/14 08:19:43;;;;;;;5.78;1.58;;;;;;;13.30;61.18;101403.22;5000477;28;20056;-70
2023/06/14 08:22:13;;;;;;;5.35;1.20;;;;;;;13.28;60.73;101405.75;5024734;28;20404;-70
2023/06/14 08:24:42;;;;;;;10.25;1.85;;;;;;;13.21;60.77;101386.47;5024193;28;20102;-70
2023/06/14 08:27:10;;;;;;;10.93;1.95;;;;;;;13.26;60.60;101398.72;5016145;28;20643;-68
2023/06/14 08:29:40;;;;;;;4.97;1.58;;;;;;;13.23;60.30;101396.94;5014822;28;20395;-71
2023/06/14 08:32:10;;;;;;;8.82;1.90;;;;;;;13.20;59.94;101404.66;5009951;28;20052;-69
2023/06/14 08:34:40;;;;;;;9.70;2.13;;;;;;;13.15;60.14;101407.13;5007275;28;20050;-70
2023/06/14 08:37:09;;;;;;;4.28;1.00;;;;;;;13.10;60.64;101411.31;5005341;28;20558;-70
2023/06/14 08:39:40;;;;;;;8.23;1.42;;;;;;;13.08;60.42;101415.56;5004286;28;20049;-69
2023/06/14 08:42:10;;;;;;;6.95;1.40;;;;;;;13.05;61.12;101412.84;5005839;28;20046;-70
2023/06/14 08:44:39;;;;;;;6.63;1.13;;;;;;;13.04;60.46;101416.31;5011668;28;20053;-70
2023/06/14 08:47:11;;;;;;;4.60;1.65;;;;;;;13.03;61.17;101417.13;4995458;28;20527;-71
2023/06/14 08:49:44;;;;;;;8.10;1.67;;;;;;;13.02;60.57;101422.28;5003055;28;20061;-70
2023/06/14 08:52:15;;;;;;;4.22;1.70;;;;;;;12.99;60.70;101418.75;5002087;28;20412;-69
2023/06/14 08:54:44;;;;;;;5.32;1.17;;;;;;;12.97;61.23;101429.94;5003568;28;20819;-70
2023/06/14 08:57:15;;;;;;;7.20;1.15;;;;;;;12.97;61.38;101425.63;4998338;28;20412;-69
2023/06/14 08:59:52;;;;;;;9.55;1.83;;;;;;;12.96;62.41;101426.47;5005530;28;20050;-70
2023/06/14 09:02:22;;;;;;;8.65;2.03;;;;;;;12.94;63.19;101429.84;5006148;28;20053;-71
2023/06/14 09:04:54;;;;;;;13.40;1.92;;;;;;;12.84;62.57;101420.00;5009373;28;20049;-69
2023/06/14 09:07:24;;;;;;;8.23;2.28;;;;;;;12.87;62.62;101433.94;5007173;28;20099;-69
2023/06/14 09:10:08;;;;;;;6.00;1.45;;;;;;;12.83;63.25;101444.19;5006891;28;20054;-70
2023/06/14 09:12:39;;;;;;;6.38;1.45;;;;;;;12.80;62.64;101442.38;5006857;28;20049;-70
2023/06/14 09:15:09;;;;;;;10.07;1.50;;;;;;;12.73;62.97;101441.31;5001456;28;20053;-70
2023/06/14 09:17:37;;;;;;;4.38;1.30;;;;;;;12.70;63.41;101441.22;5007082;28;20514;-69
2023/06/14 09:20:10;;;;;;;3.70;1.42;;;;;;;12.66;63.37;101444.56;5006825;28;20042;-70
2023/06/14 09:22:39;;;;;;;4.35;1.40;;;;;;;12.63;64.07;101446.19;5005760;28;20222;-69
2023/06/14 09:25:09;;;;;;;4.90;1.45;;;;;;;12.61;63.79;101459.09;5000089;28;20058;-69
2023/06/14 09:27:39;;;;;;;4.68;1.42;;;;;;;12.57;64.50;101449.44;5000739;28;20057;-69
2023/06/14 09:30:10;;;;;;;6.10;1.15;;;;;;;12.54;64.54;101451.97;5009019;28;20064;-70
2023/06/14 09:32:40;;;;;;;3.72;1.33;;;;;;;12.49;65.30;101443.16;5020999;28;20128;-70
2023/06/14 09:35:11;;;;;;;6.65;2.40;;;;;;;12.46;65.17;101446.53;5023211;28;20045;-70
2023/06/14 09:37:40;;;;;;;4.65;1.35;;;;;;;12.44;65.69;101447.28;5022520;28;20104;-69
2023/06/14 09:40:09;;;;;;;4.32;1.65;;;;;;;12.43;67.11;101448.13;5016548;28;20068;-70
2023/06/14 09:42:40;;;;;;;5.63;1.58;;;;;;;12.38;67.51;101452.28;5016826;28;20522;-70
2023/06/14 09:45:13;;;;;;;5.32;1.50;;;;;;;12.34;68.67;101461.69;5027303;28;20117;-69
2023/06/14 09:47:42;;;;;;;4.10;1.23;;;;;;;12.32;68.03;101456.44;5013838;28;20572;-69
2023/06/14 09:50:13;;;;;;;9.50;1.80;;;;;;;12.33;68.46;101471.19;5020219;28;20057;-69
2023/06/14 09:52:45;;;;;;;3.90;1.17;;;;;;;12.30;69.81;101471.09;5007589;28;20052;-70
2023/06/14 09:55:16;;;;;;;6.80;2.00;;;;;;;12.25;68.95;101467.44;5002964;28;20046;-70
2023/06/14 09:57:49;;;;;;;4.07;1.03;;;;;;;12.23;68.61;101458.75;5017176;28;20398;-69
2023/06/14 10:00:21;;;;;;;8.55;1.70;;;;;;;12.24;69.25;101465.69;5021446;28;20053;-70
2023/06/14 10:03:00;;;;;;;5.45;1.88;;;;;;;12.26;69.17;101457.97;5021362;28;20054;-70
2023/06/14 10:05:32;;;;;;;4.07;1.30;;;;;;;12.27;68.16;101468.38;5025301;28;20045;-70
2023/06/14 10:08:06;;;;;;;3.08;1.15;;;;;;;12.29;68.34;101464.13;5023551;28;20046;-69
2023/06/14 10:10:35;;;;;;;2.80;1.38;;;;;;;12.31;68.53;101471.97;5018032;28;20061;-70
2023/06/14 10:13:03;;;;;;;8.07;1.52;;;;;;;12.31;69.23;101466.78;5017575;28;20068;-70
2023/06/14 10:15:40;;;;;;;5.22;1.17;;;;;;;12.30;69.86;101471.09;5021777;28;20103;-70
2023/06/14 10:18:20;;;;;;;7.30;1.70;;;;;;;12.29;69.78;101469.31;5019615;28;20430;-69
2023/06/14 10:21:00;;;;;;;6.00;1.75;;;;;;;12.32;69.76;101477.22;5021545;28;20053;-69
2023/06/14 10:23:31;;;;;;;10.93;1.83;;;;;;;12.29;69.41;101478.81;5015450;28;20061;-68
2023/06/14 10:26:01;;;;;;;5.32;1.33;;;;;;;12.29;69.53;101484.88;5021690;28;20050;-69
2023/06/14 10:28:30;;;;;;;3.25;1.50;;;;;;;12.28;69.94;101484.84;5006367;28;20136;-69
2023/06/14 10:31:09;;;;;;;7.30;1.08;;;;;;;12.23;69.60;101479.50;5018811;28;20057;-69
2023/06/14 10:33:41;;;;;;;9.52;1.67;;;;;;;12.23;69.91;101483.78;4994252;28;20054;-69
2023/06/14 10:36:30;;;;;;;6.67;1.43;;;;;;;12.25;70.20;101471.75;5000450;28;20053;-69
2023/06/14 10:39:05;;;;;;;6.80;1.48;;;;;;;12.24;69.78;101465.69;5005568;28;20375;-70
2023/06/14 10:41:37;;;;;;;5.75;1.40;;;;;;;12.13;69.95;101461.84;5003563;28;20050;-70
2023/06/14 10:44:51;;;;;;;11.13;2.15;;;;;;;12.04;70.76;101456.31;5003673;28;20049;-69
2023/06/14 10:47:30;;;;;;;5.80;1.65;;;;;;;12.03;70.86;101449.38;4983702;28;20125;-69
2023/06/14 10:50:06;;;;;;;3.67;1.58;;;;;;;12.05;70.84;101458.97;4996279;28;20500;-70
2023/06/14 10:52:41;;;;;;;5.80;1.75;;;;;;;12.03;70.28;101452.84;5003182;28;20708;-69
2023/06/14 10:55:12;;;;;;;4.82;1.73;;;;;;;12.02;70.66;101452.78;5008408;28;20046;-69
2023/06/14 10:57:51;;;;;;;4.68;1.25;;;;;;;12.02;70.59;101455.38;5006590;28;20057;-70
2023/06/14 11:00:22;;;;;;;5.78;1.67;;;;;;;12.00;70.80;101452.72;5006339;28;20052;-69
2023/06/14 11:03:31;;;;;;;13.77;1.95;;;;;;;12.00;71.18;101464.81;5007341;28;20057;-69
2023/06/14 11:06:00;;;;;;;8.55;1.67;;;;;;;11.99;70.74;101460.47;5005741;28;20050;-71
2023/06/14 11:08:53;;;;;;;5.32;1.73;;;;;;;11.98;70.87;101463.88;5005298;28;20076;-70
2023/06/14 11:11:25;;;;;;;4.15;1.35;;;;;;;11.98;72.04;101463.88;5003309;28;20728;-70
2023/06/14 11:13:53;;;;;;;5.53;1.70;;;;;;;11.98;71.33;101463.88;5002914;28;20170;-71
2023/06/14 11:16:27;;;;;;;5.38;1.58;;;;;;;11.98;71.57;101458.69;5005304;28;20404;-70
2023/06/14 11:18:56;;;;;;;6.85;1.73;;;;;;;11.88;72.76;101457.50;4999555;28;20046;-69
2023/06/14 11:21:31;;;;;;;4.25;1.55;;;;;;;11.79;74.21;101468.38;5001798;28;20060;-70
2023/06/14 11:24:01;;;;;;;4.13;1.33;;;;;;;11.71;75.14;101462.06;5010153;28;20077;-69
2023/06/14 11:26:34;;;;;;;10.30;1.70;;;;;;;11.64;75.97;101454.91;5010855;28;20104;-70
2023/06/14 11:29:06;;;;;;;6.22;1.98;;;;;;;11.65;76.24;101451.47;5009650;28;20042;-70
2023/06/14 11:31:50;;;;;;;5.35;1.65;;;;;;;11.59;76.33;101451.22;5020759;28;20700;-70
2023/06/14 11:34:19;;;;;;;6.95;1.38;;;;;;;11.55;76.40;101458.03;5018622;28;20558;-69
2023/06/14 11:36:48;;;;;;;5.82;1.90;;;;;;;11.52;75.68;101455.31;5011401;28;20115;-70
2023/06/14 11:39:18;;;;;;;4.85;1.67;;;;;;;11.55;75.81;101463.22;5019395;28;20053;-70
2023/06/14 11:41:47;;;;;;;7.10;1.98;;;;;;;11.61;75.64;101470.31;5019915;28;20693;-70